Time;durP1;ratioP1;P1;durP2;ratioP2;P2;SDS_P1;SDS_P2;PMS_P1;PMS_P2;Temp;Humidity;BMP_temperature;BMP_pressure;BME280_temperature;BME280_humidity;BME280_pressure;Samples;Min_cycle;Max_cycle;Signal;HPM_P1;HPM_P2
2021/06/20 00:01:29;;;;;;;4.90;3.70;;;;;;;;;;5052923;28;20452;-64
2021/06/20 00:03:56;;;;;;;3.93;3.63;;;;;;;;;;5053865;28;20460;-65
2021/06/20 00:06:27;;;;;;;4.23;3.50;;;;;;;;;;5052518;28;20462;-65
2021/06/20 00:08:55;;;;;;;4.20;3.80;;;;;;;;;;5052651;28;20837;-64
2021/06/20 00:11:22;;;;;;;4.43;4.03;;;;;;;;;;5053058;28;20454;-65
2021/06/20 00:13:50;;;;;;;4.47;4.00;;;;;;;;;;5052972;28;20484;-65
2021/06/20 00:16:17;;;;;;;3.90;3.40;;;;;;;;;;5052648;28;20454;-65
2021/06/20 00:18:46;;;;;;;4.60;4.20;;;;;;;;;;5053489;28;20487;-65
2021/06/20 00:21:13;;;;;;;4.50;3.50;;;;;;;;;;5052920;28;20889;-64
2021/06/20 00:23:40;;;;;;;3.90;3.60;;;;;;;;;;5052583;28;20472;-64
2021/06/20 00:26:08;;;;;;;4.70;4.30;;;;;;;;;;5052132;28;20470;-65
2021/06/20 00:28:35;;;;;;;3.93;3.63;;;;;;;;;;5052810;28;20444;-65
2021/06/20 00:31:02;;;;;;;4.00;3.70;;;;;;;;;;5052479;28;20453;-65
2021/06/20 00:33:29;;;;;;;4.63;3.80;;;;;;;;;;5051872;28;20463;-65
2021/06/20 00:35:58;;;;;;;6.63;3.67;;;;;;;;;;5051865;28;20448;-65
2021/06/20 00:38:25;;;;;;;4.07;3.77;;;;;;;;;;5052983;28;20484;-65
2021/06/20 00:40:53;;;;;;;4.07;3.67;;;;;;;;;;5052426;28;20444;-65
2021/06/20 00:43:20;;;;;;;4.03;3.67;;;;;;;;;;5052655;28;20807;-65
2021/06/20 00:45:47;;;;;;;3.77;3.40;;;;;;;;;;5051277;28;20828;-64
2021/06/20 00:48:14;;;;;;;4.03;3.63;;;;;;;;;;5052387;28;20498;-64
2021/06/20 00:50:41;;;;;;;3.50;3.20;;;;;;;;;;5051726;28;20454;-64
2021/06/20 00:53:10;;;;;;;4.00;3.60;;;;;;;;;;5052381;28;20456;-64
2021/06/20 00:55:38;;;;;;;5.40;3.93;;;;;;;;;;5051310;28;20444;-65
2021/06/20 00:58:06;;;;;;;3.77;3.47;;;;;;;;;;5052386;28;20488;-65
2021/06/20 01:00:34;;;;;;;4.17;3.23;;;;;;;;;;5051981;28;20462;-65
2021/06/20 01:03:01;;;;;;;3.87;3.57;;;;;;;;;;5052163;28;20448;-65
2021/06/20 01:05:28;;;;;;;3.90;3.60;;;;;;;;;;5051039;28;20989;-65
2021/06/20 01:07:56;;;;;;;3.90;3.50;;;;;;;;;;5051647;28;20454;-65
2021/06/20 01:10:25;;;;;;;3.80;3.40;;;;;;;;;;5052519;28;20452;-64
2021/06/20 01:12:52;;;;;;;4.00;3.70;;;;;;;;;;5034202;28;20457;-65
2021/06/20 01:15:20;;;;;;;4.07;3.70;;;;;;;;;;5051474;28;20472;-64
2021/06/20 01:17:47;;;;;;;4.63;3.53;;;;;;;;;;5051254;28;20484;-65
2021/06/20 01:20:16;;;;;;;4.10;3.00;;;;;;;;;;5052147;28;20450;-65
2021/06/20 01:22:45;;;;;;;3.23;2.93;;;;;;;;;;5051973;28;20452;-65
2021/06/20 01:25:13;;;;;;;3.47;3.17;;;;;;;;;;5051016;28;20861;-65
2021/06/20 01:27:41;;;;;;;3.80;3.50;;;;;;;;;;5051682;28;20456;-64
2021/06/20 01:30:09;;;;;;;5.23;3.17;;;;;;;;;;5051169;28;20490;-65
2021/06/20 01:32:37;;;;;;;4.13;3.80;;;;;;;;;;5051498;28;20448;-65
2021/06/20 01:35:04;;;;;;;3.93;3.63;;;;;;;;;;5051553;28;20463;-64
2021/06/20 01:37:31;;;;;;;4.20;3.63;;;;;;;;;;5050651;28;20459;-64
2021/06/20 01:40:00;;;;;;;3.30;3.00;;;;;;;;;;5051482;28;20451;-64
2021/06/20 01:42:27;;;;;;;4.50;3.80;;;;;;;;;;5052305;28;20452;-64
2021/06/20 01:44:55;;;;;;;4.13;3.73;;;;;;;;;;5051281;28;20986;-65
2021/06/20 01:47:23;;;;;;;4.03;3.33;;;;;;;;;;5050603;28;20467;-65
2021/06/20 01:49:50;;;;;;;3.50;3.20;;;;;;;;;;5052114;28;20451;-65
2021/06/20 01:52:21;;;;;;;4.13;3.27;;;;;;;;;;5051407;28;20982;-64
2021/06/20 01:54:52;;;;;;;4.47;3.43;;;;;;;;;;5051786;28;20482;-64
2021/06/20 01:57:21;;;;;;;4.10;3.80;;;;;;;;;;5050708;28;20456;-64
2021/06/20 01:59:49;;;;;;;5.67;3.57;;;;;;;;;;5031569;28;20452;-65
2021/06/20 02:02:16;;;;;;;4.70;4.30;;;;;;;;;;5047847;28;20538;-65
2021/06/20 02:04:43;;;;;;;4.70;3.80;;;;;;;;;;5051359;28;21008;-65
2021/06/20 02:07:10;;;;;;;3.40;3.10;;;;;;;;;;5050563;28;20467;-65
2021/06/20 02:09:37;;;;;;;4.40;3.77;;;;;;;;;;5052184;28;20440;-65
2021/06/20 02:12:04;;;;;;;4.17;3.87;;;;;;;;;;5051326;28;20451;-65
2021/06/20 02:14:33;;;;;;;4.30;3.90;;;;;;;;;;5051584;28;20471;-65
2021/06/20 02:17:01;;;;;;;4.00;3.70;;;;;;;;;;5050720;28;20534;-64
2021/06/20 02:19:28;;;;;;;3.70;3.43;;;;;;;;;;5052190;28;20579;-65
2021/06/20 02:21:55;;;;;;;4.40;4.00;;;;;;;;;;5051779;28;20448;-64
2021/06/20 02:24:22;;;;;;;4.27;3.77;;;;;;;;;;5052038;28;20471;-64
2021/06/20 02:26:49;;;;;;;4.07;3.77;;;;;;;;;;5049939;28;20448;-65
2021/06/20 02:29:17;;;;;;;4.30;3.90;;;;;;;;;;5051360;28;20448;-64
2021/06/20 02:31:45;;;;;;;4.10;3.80;;;;;;;;;;5051305;28;20454;-64
2021/06/20 02:34:12;;;;;;;4.90;4.50;;;;;;;;;;5050881;28;20845;-64
2021/06/20 02:36:39;;;;;;;5.23;4.03;;;;;;;;;;5050355;28;20451;-64
2021/06/20 02:39:06;;;;;;;4.67;4.20;;;;;;;;;;5052027;28;20486;-64
2021/06/20 02:41:34;;;;;;;6.60;4.60;;;;;;;;;;5051508;28;20534;-64
2021/06/20 02:44:01;;;;;;;4.00;3.70;;;;;;;;;;5050913;28;20486;-64
2021/06/20 02:46:28;;;;;;;4.90;4.50;;;;;;;;;;5050611;28;20455;-64
2021/06/20 02:48:56;;;;;;;4.63;4.23;;;;;;;;;;5051896;28;20444;-64
2021/06/20 02:51:23;;;;;;;4.57;4.17;;;;;;;;;;5050836;28;20833;-64
2021/06/20 02:53:50;;;;;;;6.90;5.10;;;;;;;;;;5049290;28;20488;-64
2021/06/20 02:56:18;;;;;;;4.47;4.07;;;;;;;;;;5050285;28;20448;-65
2021/06/20 02:58:45;;;;;;;7.37;4.13;;;;;;;;;;5051155;28;20480;-64
2021/06/20 03:01:12;;;;;;;5.20;4.70;;;;;;;;;;5051418;28;20459;-64
2021/06/20 03:03:39;;;;;;;4.57;4.17;;;;;;;;;;5051433;28;20475;-65
2021/06/20 03:06:08;;;;;;;4.60;4.20;;;;;;;;;;5049982;28;20497;-64
2021/06/20 03:08:35;;;;;;;4.77;4.37;;;;;;;;;;5049931;28;20463;-64
2021/06/20 03:11:02;;;;;;;4.47;3.93;;;;;;;;;;5051202;28;20444;-65
2021/06/20 03:13:29;;;;;;;4.93;4.53;;;;;;;;;;5053170;28;20460;-64
2021/06/20 03:15:56;;;;;;;5.00;4.00;;;;;;;;;;5053879;28;20531;-64
2021/06/20 03:18:23;;;;;;;5.40;4.30;;;;;;;;;;5054424;28;20494;-64
2021/06/20 03:20:50;;;;;;;4.73;4.30;;;;;;;;;;5053824;28;20454;-64
2021/06/20 03:23:19;;;;;;;4.83;4.47;;;;;;;;;;5054495;28;20454;-64
2021/06/20 03:25:46;;;;;;;4.33;4.03;;;;;;;;;;5054060;28;20456;-65
2021/06/20 03:28:13;;;;;;;5.80;4.90;;;;;;;;;;5054481;28;20448;-64
2021/06/20 03:30:40;;;;;;;4.80;4.30;;;;;;;;;;5054676;28;20543;-64
2021/06/20 03:33:07;;;;;;;5.30;4.80;;;;;;;;;;5055254;28;20779;-64
2021/06/20 03:35:34;;;;;;;4.43;4.03;;;;;;;;;;5053846;28;20474;-64
2021/06/20 03:38:02;;;;;;;4.80;4.50;;;;;;;;;;5053893;28;20475;-64
2021/06/20 03:40:30;;;;;;;4.37;3.97;;;;;;;;;;5054381;28;20993;-64
2021/06/20 03:42:57;;;;;;;6.10;5.17;;;;;;;;;;5054647;28;20593;-64
2021/06/20 03:45:24;;;;;;;4.20;3.90;;;;;;;;;;5053362;28;20569;-65
2021/06/20 03:47:51;;;;;;;7.63;5.90;;;;;;;;;;5054029;28;20448;-64
2021/06/20 03:50:19;;;;;;;5.47;4.97;;;;;;;;;;5054052;28;20526;-64
2021/06/20 03:52:46;;;;;;;5.30;4.80;;;;;;;;;;5053989;28;21088;-64
2021/06/20 03:55:13;;;;;;;5.70;5.20;;;;;;;;;;5053912;28;20478;-64
2021/06/20 03:57:42;;;;;;;5.63;5.23;;;;;;;;;;5054122;28;20792;-64
2021/06/20 04:00:10;;;;;;;6.50;6.03;;;;;;;;;;5053502;28;20476;-65
2021/06/20 04:02:37;;;;;;;5.50;5.10;;;;;;;;;;5053911;28;20566;-64
2021/06/20 04:05:06;;;;;;;5.07;4.73;;;;;;;;;;5053432;28;20559;-64
2021/06/20 04:07:34;;;;;;;5.87;5.47;;;;;;;;;;5052917;28;20487;-65
2021/06/20 04:10:03;;;;;;;5.30;4.90;;;;;;;;;;5053900;28;20448;-64
2021/06/20 04:12:30;;;;;;;5.53;4.83;;;;;;;;;;5053951;28;20480;-65
2021/06/20 04:14:58;;;;;;;6.00;5.40;;;;;;;;;;5053580;28;20477;-64
2021/06/20 04:17:28;;;;;;;5.57;5.17;;;;;;;;;;5053699;28;20456;-65
2021/06/20 04:19:56;;;;;;;5.37;4.97;;;;;;;;;;5053647;28;20600;-64
2021/06/20 04:22:23;;;;;;;6.30;5.70;;;;;;;;;;5053877;28;20455;-64
2021/06/20 04:24:50;;;;;;;6.30;5.80;;;;;;;;;;5053712;28;20478;-65
2021/06/20 04:27:17;;;;;;;7.27;6.57;;;;;;;;;;5053328;28;20988;-64
2021/06/20 04:29:44;;;;;;;7.50;7.00;;;;;;;;;;5053655;28;20454;-64
2021/06/20 04:32:12;;;;;;;8.77;6.83;;;;;;;;;;5053591;28;20462;-65
2021/06/20 04:34:40;;;;;;;7.90;7.30;;;;;;;;;;5053710;28;20867;-64
2021/06/20 04:37:07;;;;;;;7.60;6.90;;;;;;;;;;5053036;28;20448;-64
2021/06/20 04:39:34;;;;;;;7.17;6.03;;;;;;;;;;5053820;28;20476;-65
2021/06/20 04:42:01;;;;;;;7.47;6.77;;;;;;;;;;5053940;28;20457;-65
2021/06/20 04:44:44;;;;;;;8.53;7.40;;;;;;;;;;5053439;28;20497;-65
2021/06/20 04:47:13;;;;;;;7.90;7.20;;;;;;;;;;5052906;28;20466;-65
2021/06/20 04:49:40;;;;;;;7.97;7.17;;;;;;;;;;5053866;28;20444;-64
2021/06/20 04:52:07;;;;;;;7.33;6.70;;;;;;;;;;5053816;28;20454;-65
2021/06/20 04:54:36;;;;;;;10.50;6.33;;;;;;;;;;5053741;28;20480;-65
2021/06/20 04:57:04;;;;;;;6.50;5.93;;;;;;;;;;5052658;28;21020;-65
2021/06/20 04:59:31;;;;;;;7.10;6.60;;;;;;;;;;5053916;28;20485;-65
2021/06/20 05:01:58;;;;;;;6.43;5.90;;;;;;;;;;5053754;28;20858;-65
2021/06/20 05:04:27;;;;;;;6.57;5.97;;;;;;;;;;5052752;28;20503;-65
2021/06/20 05:06:54;;;;;;;6.47;5.87;;;;;;;;;;5052107;28;20448;-65
2021/06/20 05:09:21;;;;;;;6.60;6.10;;;;;;;;;;5052658;28;20482;-65
2021/06/20 05:11:48;;;;;;;6.20;5.70;;;;;;;;;;5053253;28;20452;-65
2021/06/20 05:14:15;;;;;;;5.80;5.37;;;;;;;;;;5046911;28;20479;-65
2021/06/20 05:16:42;;;;;;;5.90;5.40;;;;;;;;;;5032424;28;20962;-65
2021/06/20 05:19:09;;;;;;;6.60;5.20;;;;;;;;;;5050600;28;20485;-65
2021/06/20 05:21:38;;;;;;;5.83;5.40;;;;;;;;;;5053218;28;20456;-65
2021/06/20 05:24:05;;;;;;;5.90;5.40;;;;;;;;;;5053067;28;20463;-65
2021/06/20 05:26:32;;;;;;;5.20;4.80;;;;;;;;;;5052067;28;20460;-65
2021/06/20 05:29:00;;;;;;;7.83;5.30;;;;;;;;;;5053349;28;20456;-65
2021/06/20 05:31:27;;;;;;;5.57;5.00;;;;;;;;;;5050473;28;20449;-65
2021/06/20 05:33:54;;;;;;;5.47;4.97;;;;;;;;;;5052883;28;20463;-65
2021/06/20 05:36:21;;;;;;;4.43;4.03;;;;;;;;;;5051367;28;20450;-65
2021/06/20 05:38:50;;;;;;;6.03;5.07;;;;;;;;;;5033312;28;20451;-65
2021/06/20 05:41:17;;;;;;;4.63;4.20;;;;;;;;;;5033173;28;20449;-65
2021/06/20 05:43:44;;;;;;;5.27;4.43;;;;;;;;;;5052754;28;20468;-65
2021/06/20 05:46:11;;;;;;;7.30;3.77;;;;;;;;;;5051436;28;20939;-65
2021/06/20 05:48:39;;;;;;;4.23;3.83;;;;;;;;;;5052991;28;20462;-65
2021/06/20 05:51:06;;;;;;;4.33;4.03;;;;;;;;;;5045672;28;20484;-65
2021/06/20 05:53:33;;;;;;;3.97;3.50;;;;;;;;;;5032705;28;20481;-65
2021/06/20 05:56:01;;;;;;;3.40;3.10;;;;;;;;;;5038354;28;20452;-65
2021/06/20 05:58:28;;;;;;;4.40;3.47;;;;;;;;;;5053031;28;20447;-65
2021/06/20 06:00:56;;;;;;;3.43;3.07;;;;;;;;;;5052433;28;20484;-65
2021/06/20 06:03:23;;;;;;;6.23;3.00;;;;;;;;;;5052729;28;20963;-65
2021/06/20 06:05:50;;;;;;;3.30;3.00;;;;;;;;;;5051428;28;20451;-65
2021/06/20 06:08:17;;;;;;;6.03;3.70;;;;;;;;;;5053455;28;20458;-64
2021/06/20 06:10:44;;;;;;;3.63;3.10;;;;;;;;;;5052275;28;20936;-65
2021/06/20 06:13:13;;;;;;;5.90;3.07;;;;;;;;;;5053091;28;20460;-65
2021/06/20 06:15:40;;;;;;;4.53;2.60;;;;;;;;;;5052970;28;20452;-65
2021/06/20 06:18:07;;;;;;;5.57;2.50;;;;;;;;;;5062809;28;20451;-64
2021/06/20 06:20:34;;;;;;;5.87;3.03;;;;;;;;;;5068135;28;20497;-66
2021/06/20 06:23:01;;;;;;;5.10;2.97;;;;;;;;;;5066158;28;20809;-65
2021/06/20 06:25:29;;;;;;;5.03;4.53;;;;;;;;;;5063262;28;20990;-65
2021/06/20 06:27:56;;;;;;;7.43;6.63;;;;;;;;;;5063356;28;20447;-65
2021/06/20 06:30:24;;;;;;;7.53;7.03;;;;;;;;;;5063086;28;21034;-65
2021/06/20 06:32:52;;;;;;;7.90;7.20;;;;;;;;;;5050655;28;20485;-66
2021/06/20 06:35:19;;;;;;;8.30;7.50;;;;;;;;;;5051405;28;20467;-65
2021/06/20 06:37:49;;;;;;;9.97;9.30;;;;;;;;;;5051167;28;20844;-65
2021/06/20 06:40:16;;;;;;;9.77;9.03;;;;;;;;;;5051979;28;20519;-66
2021/06/20 06:42:43;;;;;;;10.20;9.50;;;;;;;;;;5050406;28;20955;-66
2021/06/20 06:45:11;;;;;;;10.33;9.70;;;;;;;;;;5051397;28;20463;-65
2021/06/20 06:47:40;;;;;;;11.27;10.40;;;;;;;;;;5052935;28;20539;-65
2021/06/20 06:50:08;;;;;;;10.90;10.20;;;;;;;;;;5056192;28;20448;-65
2021/06/20 06:52:35;;;;;;;9.90;9.30;;;;;;;;;;5055435;28;20447;-66
2021/06/20 06:55:03;;;;;;;11.87;10.90;;;;;;;;;;5055823;28;20489;-65
2021/06/20 06:57:31;;;;;;;10.83;10.13;;;;;;;;;;5054652;28;20451;-66
2021/06/20 06:59:58;;;;;;;10.60;9.97;;;;;;;;;;5055578;28;20486;-65
2021/06/20 07:02:26;;;;;;;12.50;11.47;;;;;;;;;;5055237;28;20509;-65
2021/06/20 07:04:54;;;;;;;11.83;11.13;;;;;;;;;;5055646;28;20475;-65
2021/06/20 07:07:21;;;;;;;12.77;12.00;;;;;;;;;;5054516;28;20972;-65
2021/06/20 07:09:48;;;;;;;13.00;12.20;;;;;;;;;;5055811;28;20439;-65
2021/06/20 07:12:15;;;;;;;12.50;11.60;;;;;;;;;;5055320;28;20458;-65
2021/06/20 07:14:42;;;;;;;12.70;11.70;;;;;;;;;;5055696;28;20474;-65
2021/06/20 07:17:10;;;;;;;12.60;11.80;;;;;;;;;;5054101;28;20459;-65
2021/06/20 07:19:38;;;;;;;12.80;12.00;;;;;;;;;;5055031;28;20483;-65
2021/06/20 07:22:07;;;;;;;13.53;12.50;;;;;;;;;;5048105;28;20468;-66
2021/06/20 07:24:34;;;;;;;13.20;12.27;;;;;;;;;;5035327;28;20461;-65
2021/06/20 07:27:01;;;;;;;13.03;12.00;;;;;;;;;;5043242;28;20471;-66
2021/06/20 07:29:28;;;;;;;12.97;12.07;;;;;;;;;;5054077;28;20452;-66
2021/06/20 07:31:55;;;;;;;13.30;12.50;;;;;;;;;;5055251;28;20935;-66
2021/06/20 07:34:22;;;;;;;12.77;11.97;;;;;;;;;;5054823;28;20467;-66
2021/06/20 07:36:51;;;;;;;12.60;11.73;;;;;;;;;;5053347;28;20451;-66
2021/06/20 07:39:19;;;;;;;12.43;11.57;;;;;;;;;;5054777;28;20459;-66
2021/06/20 07:41:47;;;;;;;11.73;10.83;;;;;;;;;;5054445;28;20447;-65
2021/06/20 07:44:14;;;;;;;11.00;10.10;;;;;;;;;;5053853;28;20467;-65
2021/06/20 07:46:41;;;;;;;10.23;9.43;;;;;;;;;;5053507;28;20452;-65
2021/06/20 07:49:08;;;;;;;9.93;9.00;;;;;;;;;;5054724;28;20909;-65
2021/06/20 07:51:35;;;;;;;9.17;8.23;;;;;;;;;;5054442;28;20448;-65
2021/06/20 07:54:02;;;;;;;7.53;7.03;;;;;;;;;;5053134;28;20475;-65
2021/06/20 07:56:31;;;;;;;6.70;6.20;;;;;;;;;;5053929;28;20448;-65
2021/06/20 07:58:58;;;;;;;6.57;6.07;;;;;;;;;;5053814;28;20448;-65
2021/06/20 08:01:25;;;;;;;7.17;6.00;;;;;;;;;;5054140;28;20485;-65
2021/06/20 08:03:52;;;;;;;6.63;5.87;;;;;;;;;;5054350;28;20487;-65
2021/06/20 08:06:20;;;;;;;5.80;5.40;;;;;;;;;;5052528;28;20462;-65
2021/06/20 08:08:48;;;;;;;5.23;4.80;;;;;;;;;;5051164;28;20594;-65
2021/06/20 08:11:15;;;;;;;9.30;5.53;;;;;;;;;;5055366;28;20448;-65
2021/06/20 08:13:43;;;;;;;6.70;6.03;;;;;;;;;;5054104;28;20832;-65
2021/06/20 08:16:10;;;;;;;6.17;5.57;;;;;;;;;;5053421;28;21034;-66
2021/06/20 08:18:37;;;;;;;8.10;5.80;;;;;;;;;;5054363;28;20460;-67
2021/06/20 08:21:05;;;;;;;8.17;5.90;;;;;;;;;;5054165;28;20475;-66
2021/06/20 08:23:32;;;;;;;8.87;5.40;;;;;;;;;;5053599;28;20475;-66
2021/06/20 08:25:59;;;;;;;8.10;5.90;;;;;;;;;;5053279;28;20807;-67
2021/06/20 08:28:26;;;;;;;7.60;5.47;;;;;;;;;;5053862;28;20451;-67
2021/06/20 08:30:55;;;;;;;7.93;4.63;;;;;;;;;;5054274;28;20959;-66
2021/06/20 08:33:22;;;;;;;8.13;4.90;;;;;;;;;;5053751;28;20454;-66
2021/06/20 08:35:49;;;;;;;7.10;5.17;;;;;;;;;;5052802;28;20454;-67
2021/06/20 08:38:16;;;;;;;8.73;5.20;;;;;;;;;;5053587;28;20454;-67
2021/06/20 08:40:43;;;;;;;7.53;5.07;;;;;;;;;;5053435;28;20475;-66
2021/06/20 08:43:10;;;;;;;7.83;5.53;;;;;;;;;;5053935;28;20447;-68
2021/06/20 08:45:37;;;;;;;8.10;6.00;;;;;;;;;;5051281;28;20463;-69
2021/06/20 08:48:07;;;;;;;7.20;5.97;;;;;;;;;;5053298;28;20482;-69
2021/06/20 08:50:34;;;;;;;6.83;6.30;;;;;;;;;;5052818;28;20447;-68
2021/06/20 08:53:02;;;;;;;6.17;5.67;;;;;;;;;;5053005;28;20956;-69
2021/06/20 08:55:29;;;;;;;7.47;6.77;;;;;;;;;;5055814;28;20485;-69
2021/06/20 08:58:00;;;;;;;6.83;5.70;;;;;;;;;;5054977;28;20471;-68
2021/06/20 09:00:27;;;;;;;6.13;5.30;;;;;;;;;;5053527;28;20472;-69
2021/06/20 09:02:58;;;;;;;6.90;5.70;;;;;;;;;;5052336;28;20977;-68
2021/06/20 09:05:26;;;;;;;6.33;5.63;;;;;;;;;;5052828;28;20472;-67
2021/06/20 09:07:53;;;;;;;7.00;5.20;;;;;;;;;;5052277;28;20448;-68
2021/06/20 09:10:22;;;;;;;6.10;5.50;;;;;;;;;;5052825;28;20444;-68
2021/06/20 09:12:50;;;;;;;5.67;5.17;;;;;;;;;;5052571;28;20466;-68
2021/06/20 09:15:19;;;;;;;7.03;5.53;;;;;;;;;;5052246;28;20468;-68
2021/06/20 09:17:53;;;;;;;5.73;5.13;;;;;;;;;;5051881;28;20456;-68
2021/06/20 09:20:30;;;;;;;6.93;5.30;;;;;;;;;;5052338;28;21024;-68
2021/06/20 09:22:59;;;;;;;5.50;4.90;;;;;;;;;;5052248;28;20450;-68
2021/06/20 09:25:27;;;;;;;6.60;5.87;;;;;;;;;;5051526;28;20476;-69
2021/06/20 09:27:56;;;;;;;6.20;5.60;;;;;;;;;;5052579;28;20452;-65
2021/06/20 09:30:24;;;;;;;9.80;6.03;;;;;;;;;;5052449;28;20455;-64
2021/06/20 09:32:54;;;;;;;7.37;4.90;;;;;;;;;;5052650;28;20454;-64
2021/06/20 09:35:21;;;;;;;6.00;5.40;;;;;;;;;;5052059;28;20464;-68
2021/06/20 09:37:52;;;;;;;6.60;5.90;;;;;;;;;;5051436;28;20818;-67
2021/06/20 09:40:21;;;;;;;6.30;5.70;;;;;;;;;;5052595;28;20479;-67
2021/06/20 09:42:49;;;;;;;8.00;6.10;;;;;;;;;;5049874;28;21143;-67
2021/06/20 09:45:26;;;;;;;6.43;5.17;;;;;;;;;;5051773;28;20468;-67
2021/06/20 09:47:53;;;;;;;6.30;5.70;;;;;;;;;;5052663;28;20435;-67
2021/06/20 09:50:33;;;;;;;5.93;5.30;;;;;;;;;;5052115;28;20521;-67
2021/06/20 09:53:01;;;;;;;6.43;4.90;;;;;;;;;;5051328;28;20951;-67
2021/06/20 09:55:29;;;;;;;4.93;4.50;;;;;;;;;;5052221;28;20862;-68
2021/06/20 09:57:59;;;;;;;7.67;5.67;;;;;;;;;;5048985;28;20468;-69
2021/06/20 10:00:26;;;;;;;7.77;6.20;;;;;;;;;;5052750;28;20490;-68
2021/06/20 10:02:53;;;;;;;6.47;5.97;;;;;;;;;;5050721;28;20828;-68
2021/06/20 10:05:20;;;;;;;8.37;6.20;;;;;;;;;;5051397;28;21074;-68
2021/06/20 10:07:47;;;;;;;7.93;7.13;;;;;;;;;;5051387;28;20471;-71
2021/06/20 10:10:14;;;;;;;8.77;8.17;;;;;;;;;;5048540;28;20478;-72
2021/06/20 10:12:43;;;;;;;10.00;9.20;;;;;;;;;;5042816;28;20835;-72
2021/06/20 10:15:14;;;;;;;8.87;8.17;;;;;;;;;;5032085;28;20472;-72
2021/06/20 10:17:43;;;;;;;9.63;8.70;;;;;;;;;;5039870;28;20554;-72
2021/06/20 10:20:12;;;;;;;10.10;9.30;;;;;;;;;;5052384;28;20841;-72
2021/06/20 10:22:41;;;;;;;10.03;9.33;;;;;;;;;;5053572;28;20479;-72
2021/06/20 10:25:09;;;;;;;10.03;9.10;;;;;;;;;;5053797;28;21032;-70
2021/06/20 10:27:38;;;;;;;10.40;9.40;;;;;;;;;;5055885;28;21093;-70
2021/06/20 10:30:08;;;;;;;10.10;9.30;;;;;;;;;;5056593;28;20491;-71
2021/06/20 10:32:37;;;;;;;9.17;8.47;;;;;;;;;;5055739;28;20438;-70
2021/06/20 10:35:05;;;;;;;9.33;8.63;;;;;;;;;;5055280;28;21301;-70
2021/06/20 10:37:33;;;;;;;9.50;8.70;;;;;;;;;;5056536;28;20455;-70
2021/06/20 10:40:01;;;;;;;9.10;8.50;;;;;;;;;;5055172;28;20478;-73
2021/06/20 10:42:37;;;;;;;8.90;8.10;;;;;;;;;;5055287;28;20487;-70
2021/06/20 10:45:04;;;;;;;7.70;7.00;;;;;;;;;;5054311;28;20491;-71
2021/06/20 10:47:34;;;;;;;7.17;6.47;;;;;;;;;;5053106;28;20474;-72
2021/06/20 10:50:04;;;;;;;7.30;6.70;;;;;;;;;;5055018;28;20517;-72
2021/06/20 10:52:31;;;;;;;6.47;5.97;;;;;;;;;;5054844;28;20459;-70
2021/06/20 10:55:12;;;;;;;6.47;5.83;;;;;;;;;;5053937;28;21014;-70
2021/06/20 10:57:43;;;;;;;6.00;5.50;;;;;;;;;;5054597;28;20455;-72
2021/06/20 11:00:11;;;;;;;6.73;6.13;;;;;;;;;;5064519;22;20492;-65
2021/06/20 11:02:40;;;;;;;7.43;5.73;;;;;;;;;;5033621;28;20455;-65
2021/06/20 11:05:07;;;;;;;7.03;6.00;;;;;;;;;;5026887;28;20849;-65
2021/06/20 11:07:34;;;;;;;6.60;5.83;;;;;;;;;;5047305;28;20467;-65
2021/06/20 11:10:01;;;;;;;7.07;6.37;;;;;;;;;;5054541;28;21009;-65
2021/06/20 11:12:29;;;;;;;4.97;4.57;;;;;;;;;;5053496;28;20470;-65
2021/06/20 11:14:57;;;;;;;6.70;6.10;;;;;;;;;;5037044;28;20956;-64
2021/06/20 11:17:33;;;;;;;6.47;5.70;;;;;;;;;;5050515;28;20510;-65
2021/06/20 11:20:12;;;;;;;6.80;6.03;;;;;;;;;;5052704;28;20872;-65
2021/06/20 11:22:39;;;;;;;7.90;6.30;;;;;;;;;;5050901;28;21051;-65
2021/06/20 11:25:07;;;;;;;6.90;6.00;;;;;;;;;;5051209;28;20467;-64
2021/06/20 11:27:34;;;;;;;5.57;5.17;;;;;;;;;;5050278;28;20954;-67
2021/06/20 11:30:01;;;;;;;5.20;4.80;;;;;;;;;;5054127;28;20464;-65
2021/06/20 11:32:29;;;;;;;5.60;5.10;;;;;;;;;;5052967;28;20483;-65
2021/06/20 11:34:57;;;;;;;7.30;6.67;;;;;;;;;;5037193;28;20461;-65
2021/06/20 11:37:26;;;;;;;5.97;5.37;;;;;;;;;;5033148;28;20901;-65
2021/06/20 11:39:55;;;;;;;5.40;4.57;;;;;;;;;;5033384;28;20485;-66
2021/06/20 11:42:26;;;;;;;4.63;3.90;;;;;;;;;;5044828;28;20483;-66
2021/06/20 11:44:54;;;;;;;4.80;4.40;;;;;;;;;;5049630;28;20470;-66
2021/06/20 11:47:27;;;;;;;4.70;4.30;;;;;;;;;;5031798;28;20473;-66
2021/06/20 11:49:54;;;;;;;4.23;3.17;;;;;;;;;;5031580;28;20489;-66
2021/06/20 11:52:23;;;;;;;4.27;3.87;;;;;;;;;;5033929;28;20441;-64
2021/06/20 11:55:04;;;;;;;4.90;4.50;;;;;;;;;;5046844;28;20472;-66
2021/06/20 11:57:32;;;;;;;3.67;3.37;;;;;;;;;;5050057;28;20452;-66
2021/06/20 12:00:07;;;;;;;4.03;3.63;;;;;;;;;;5044376;28;20500;-66
2021/06/20 12:02:35;;;;;;;3.37;3.03;;;;;;;;;;5048752;28;20889;-66
2021/06/20 12:05:02;;;;;;;4.00;3.60;;;;;;;;;;5048749;28;20472;-66
2021/06/20 12:07:29;;;;;;;4.17;3.77;;;;;;;;;;5041341;28;20559;-66
2021/06/20 12:09:57;;;;;;;4.30;3.90;;;;;;;;;;5034554;28;21038;-65
2021/06/20 12:12:25;;;;;;;4.30;3.90;;;;;;;;;;5042391;28;20529;-66
2021/06/20 12:14:59;;;;;;;4.40;4.00;;;;;;;;;;5047499;28;20467;-66
2021/06/20 12:17:27;;;;;;;3.67;3.07;;;;;;;;;;5052443;28;20444;-66
2021/06/20 12:19:54;;;;;;;3.50;3.20;;;;;;;;;;5037046;28;21075;-66
2021/06/20 12:22:21;;;;;;;4.20;3.80;;;;;;;;;;5050863;28;20850;-66
2021/06/20 12:24:49;;;;;;;4.43;4.00;;;;;;;;;;5046021;28;20498;-66
2021/06/20 12:27:29;;;;;;;4.00;3.57;;;;;;;;;;5051967;28;20462;-65
2021/06/20 12:29:56;;;;;;;3.70;3.40;;;;;;;;;;5036636;28;21022;-66
2021/06/20 12:32:23;;;;;;;3.43;3.13;;;;;;;;;;5032810;28;20834;-65
2021/06/20 12:34:52;;;;;;;4.23;3.83;;;;;;;;;;5037721;28;20479;-66
2021/06/20 12:37:20;;;;;;;3.87;3.57;;;;;;;;;;5045204;28;20483;-66
2021/06/20 12:39:49;;;;;;;4.33;3.93;;;;;;;;;;5040178;28;20501;-66
2021/06/20 12:42:17;;;;;;;4.00;3.60;;;;;;;;;;5046324;28;20481;-66
2021/06/20 12:44:46;;;;;;;4.70;3.17;;;;;;;;;;5031706;28;20481;-65
2021/06/20 12:47:13;;;;;;;4.13;3.73;;;;;;;;;;5034777;28;20456;-65
2021/06/20 12:49:41;;;;;;;3.93;3.30;;;;;;;;;;5034605;28;20496;-65
2021/06/20 12:52:08;;;;;;;3.70;3.40;;;;;;;;;;5032845;28;20449;-66
2021/06/20 12:54:52;;;;;;;4.27;3.87;;;;;;;;;;5033744;28;20468;-66
2021/06/20 12:57:22;;;;;;;5.90;3.57;;;;;;;;;;5051915;28;20432;-66
2021/06/20 12:59:49;;;;;;;3.70;3.40;;;;;;;;;;5041091;28;20491;-65
2021/06/20 13:02:24;;;;;;;3.30;3.10;;;;;;;;;;5052504;28;20484;-66
2021/06/20 13:04:51;;;;;;;4.53;3.67;;;;;;;;;;5049510;28;20471;-65
2021/06/20 13:07:30;;;;;;;4.83;3.30;;;;;;;;;;5050554;28;20538;-65
2021/06/20 13:09:57;;;;;;;3.30;3.00;;;;;;;;;;5049109;28;20514;-64
2021/06/20 13:12:25;;;;;;;3.57;3.27;;;;;;;;;;5052493;28;20444;-65
2021/06/20 13:14:52;;;;;;;3.93;3.53;;;;;;;;;;5047538;28;20954;-65
2021/06/20 13:17:20;;;;;;;3.60;3.13;;;;;;;;;;5051592;28;20443;-65
2021/06/20 13:19:47;;;;;;;3.03;2.83;;;;;;;;;;5049020;28;20483;-66
2021/06/20 13:22:14;;;;;;;3.67;2.70;;;;;;;;;;5052121;28;20484;-65
2021/06/20 13:24:41;;;;;;;3.53;2.70;;;;;;;;;;5038856;28;20479;-66
2021/06/20 13:27:08;;;;;;;3.03;2.83;;;;;;;;;;5028527;28;20579;-65
2021/06/20 13:29:36;;;;;;;4.50;3.40;;;;;;;;;;5030474;28;20472;-68
2021/06/20 13:32:04;;;;;;;3.70;3.40;;;;;;;;;;5028416;28;20466;-66
2021/06/20 13:34:31;;;;;;;3.27;3.03;;;;;;;;;;5032384;28;20947;-66
2021/06/20 13:36:58;;;;;;;3.97;3.23;;;;;;;;;;5030640;28;20551;-65
2021/06/20 13:39:25;;;;;;;2.87;2.67;;;;;;;;;;5031715;28;21025;-66
2021/06/20 13:41:52;;;;;;;3.60;3.30;;;;;;;;;;5031927;28;20489;-65
2021/06/20 13:44:19;;;;;;;4.17;3.33;;;;;;;;;;5030667;28;20841;-67
2021/06/20 13:46:49;;;;;;;3.67;3.37;;;;;;;;;;5030277;28;20488;-66
2021/06/20 13:49:17;;;;;;;4.90;3.53;;;;;;;;;;5026708;28;20515;-66
2021/06/20 13:51:44;;;;;;;3.37;3.03;;;;;;;;;;5031810;28;20459;-65
2021/06/20 13:54:12;;;;;;;4.20;3.33;;;;;;;;;;5031474;28;20448;-65
2021/06/20 13:56:39;;;;;;;3.60;3.30;;;;;;;;;;5030731;28;20453;-65
2021/06/20 13:59:06;;;;;;;3.27;2.97;;;;;;;;;;5031823;28;20475;-66
2021/06/20 14:01:33;;;;;;;3.03;2.80;;;;;;;;;;5033917;28;20483;-66
2021/06/20 14:04:01;;;;;;;4.67;3.03;;;;;;;;;;5033883;28;20452;-67
2021/06/20 14:06:28;;;;;;;3.83;3.53;;;;;;;;;;5029446;28;20475;-66
2021/06/20 14:08:56;;;;;;;4.00;3.37;;;;;;;;;;5030419;28;20867;-66
2021/06/20 14:11:23;;;;;;;3.23;3.00;;;;;;;;;;5031465;28;20453;-67
2021/06/20 14:13:50;;;;;;;4.30;4.00;;;;;;;;;;5032399;28;20455;-67
2021/06/20 14:16:17;;;;;;;6.40;4.00;;;;;;;;;;5030951;28;20769;-67
2021/06/20 14:18:44;;;;;;;4.10;3.70;;;;;;;;;;5032344;28;20464;-71
2021/06/20 14:21:13;;;;;;;4.30;3.90;;;;;;;;;;5031004;28;20952;-68
2021/06/20 14:23:40;;;;;;;5.10;4.03;;;;;;;;;;5030715;28;20488;-69
2021/06/20 14:26:07;;;;;;;4.00;3.57;;;;;;;;;;5030475;28;20579;-68
2021/06/20 14:28:35;;;;;;;4.40;4.10;;;;;;;;;;5032356;28;20459;-69
2021/06/20 14:31:02;;;;;;;4.57;3.77;;;;;;;;;;5031059;28;20530;-69
2021/06/20 14:33:29;;;;;;;4.07;3.77;;;;;;;;;;5031066;28;20839;-68
2021/06/20 14:35:56;;;;;;;4.60;4.30;;;;;;;;;;5022161;28;20456;-69
2021/06/20 14:38:25;;;;;;;4.07;3.77;;;;;;;;;;5049441;28;20482;-68
2021/06/20 14:40:52;;;;;;;3.60;3.30;;;;;;;;;;5031764;28;20841;-69
2021/06/20 14:43:19;;;;;;;4.23;3.87;;;;;;;;;;5031973;28;20486;-67
2021/06/20 14:45:46;;;;;;;4.97;4.50;;;;;;;;;;5031129;28;20563;-69